sensor_id;sensor_type;location;lat;lon;timestamp;temperature;humidity
11922;DHT22;6021;51.182;3.160;2023-07-13T00:00:38;16.20;99.90
11922;DHT22;6021;51.182;3.160;2023-07-13T00:03:07;16.00;99.90
11922;DHT22;6021;51.182;3.160;2023-07-13T00:05:36;15.90;99.90
11922;DHT22;6021;51.182;3.160;2023-07-13T00:08:05;15.80;99.90
11922;DHT22;6021;51.182;3.160;2023-07-13T00:10:33;15.80;99.90
11922;DHT22;6021;51.182;3.160;2023-07-13T00:13:01;15.70;99.90
11922;DHT22;6021;51.182;3.160;2023-07-13T00:15:31;15.90;99.90
11922;DHT22;6021;51.182;3.160;2023-07-13T00:17:59;16.00;99.90
11922;DHT22;6021;51.182;3.160;2023-07-13T00:20:28;16.00;99.90
11922;DHT22;6021;51.182;3.160;2023-07-13T00:22:56;15.90;99.90
11922;DHT22;6021;51.182;3.160;2023-07-13T00:25:24;16.00;99.90
11922;DHT22;6021;51.182;3.160;2023-07-13T00:27:55;15.90;99.90
11922;DHT22;6021;51.182;3.160;2023-07-13T00:30:23;15.80;99.90
11922;DHT22;6021;51.182;3.160;2023-07-13T00:32:53;15.90;99.90
11922;DHT22;6021;51.182;3.160;2023-07-13T00:35:21;16.00;99.90
11922;DHT22;6021;51.182;3.160;2023-07-13T00:37:50;15.90;99.90
11922;DHT22;6021;51.182;3.160;2023-07-13T00:40:18;15.90;99.90
11922;DHT22;6021;51.182;3.160;2023-07-13T00:42:47;15.80;99.90
11922;DHT22;6021;51.182;3.160;2023-07-13T00:47:46;15.70;99.90
11922;DHT22;6021;51.182;3.160;2023-07-13T00:50:16;15.70;99.90
11922;DHT22;6021;51.182;3.160;2023-07-13T00:52:48;15.60;99.90
11922;DHT22;6021;51.182;3.160;2023-07-13T00:55:17;15.70;99.90
11922;DHT22;6021;51.182;3.160;2023-07-13T00:57:46;15.70;99.90
11922;DHT22;6021;51.182;3.160;2023-07-13T01:00:14;15.70;99.90
11922;DHT22;6021;51.182;3.160;2023-07-13T01:02:45;15.70;99.90
11922;DHT22;6021;51.182;3.160;2023-07-13T01:05:17;15.70;99.90
11922;DHT22;6021;51.182;3.160;2023-07-13T01:07:47;15.70;99.90
11922;DHT22;6021;51.182;3.160;2023-07-13T01:10:16;15.70;99.90
11922;DHT22;6021;51.182;3.160;2023-07-13T01:12:44;15.80;99.90
11922;DHT22;6021;51.182;3.160;2023-07-13T01:18:01;15.80;99.90
11922;DHT22;6021;51.182;3.160;2023-07-13T01:20:30;15.90;99.90
11922;DHT22;6021;51.182;3.160;2023-07-13T01:23:01;16.00;99.90
11922;DHT22;6021;51.182;3.160;2023-07-13T01:25:29;15.90;99.90
11922;DHT22;6021;51.182;3.160;2023-07-13T01:27:58;15.90;99.90
11922;DHT22;6021;51.182;3.160;2023-07-13T01:30:26;15.90;99.90
11922;DHT22;6021;51.182;3.160;2023-07-13T01:32:55;15.80;99.90
11922;DHT22;6021;51.182;3.160;2023-07-13T01:35:23;15.90;99.90
11922;DHT22;6021;51.182;3.160;2023-07-13T01:37:52;15.90;99.90
11922;DHT22;6021;51.182;3.160;2023-07-13T01:40:21;16.00;99.90
11922;DHT22;6021;51.182;3.160;2023-07-13T01:42:50;16.00;99.90
11922;DHT22;6021;51.182;3.160;2023-07-13T01:45:18;16.10;99.90
11922;DHT22;6021;51.182;3.160;2023-07-13T01:47:46;16.20;99.90
11922;DHT22;6021;51.182;3.160;2023-07-13T01:50:15;16.10;99.90
11922;DHT22;6021;51.182;3.160;2023-07-13T01:52:43;16.10;99.90
11922;DHT22;6021;51.182;3.160;2023-07-13T01:55:12;16.20;99.90
11922;DHT22;6021;51.182;3.160;2023-07-13T01:57:41;16.00;99.90
11922;DHT22;6021;51.182;3.160;2023-07-13T02:00:10;15.90;99.90
11922;DHT22;6021;51.182;3.160;2023-07-13T02:02:39;15.80;99.90
11922;DHT22;6021;51.182;3.160;2023-07-13T02:05:08;15.60;99.90
11922;DHT22;6021;51.182;3.160;2023-07-13T02:07:37;15.70;99.90
11922;DHT22;6021;51.182;3.160;2023-07-13T02:10:07;15.80;99.90
11922;DHT22;6021;51.182;3.160;2023-07-13T02:12:36;15.70;99.90
11922;DHT22;6021;51.182;3.160;2023-07-13T02:15:05;15.70;99.90
11922;DHT22;6021;51.182;3.160;2023-07-13T02:17:34;15.70;99.90
11922;DHT22;6021;51.182;3.160;2023-07-13T02:20:04;15.90;99.90
11922;DHT22;6021;51.182;3.160;2023-07-13T02:22:32;15.80;99.90
11922;DHT22;6021;51.182;3.160;2023-07-13T02:25:01;15.80;99.90
11922;DHT22;6021;51.182;3.160;2023-07-13T02:27:29;15.70;99.90
11922;DHT22;6021;51.182;3.160;2023-07-13T02:29:58;15.80;99.90
11922;DHT22;6021;51.182;3.160;2023-07-13T02:32:26;15.70;99.90
11922;DHT22;6021;51.182;3.160;2023-07-13T02:34:55;15.70;99.90
11922;DHT22;6021;51.182;3.160;2023-07-13T02:37:23;15.80;99.90
11922;DHT22;6021;51.182;3.160;2023-07-13T02:39:51;15.60;99.90
11922;DHT22;6021;51.182;3.160;2023-07-13T02:42:19;15.60;99.90
11922;DHT22;6021;51.182;3.160;2023-07-13T02:44:48;15.50;99.90
11922;DHT22;6021;51.182;3.160;2023-07-13T02:47:18;15.80;99.90
11922;DHT22;6021;51.182;3.160;2023-07-13T02:49:46;15.30;99.90
11922;DHT22;6021;51.182;3.160;2023-07-13T02:52:14;15.60;99.90
11922;DHT22;6021;51.182;3.160;2023-07-13T02:54:43;15.40;99.90
11922;DHT22;6021;51.182;3.160;2023-07-13T02:57:11;15.60;99.90
11922;DHT22;6021;51.182;3.160;2023-07-13T02:59:39;15.60;99.90
11922;DHT22;6021;51.182;3.160;2023-07-13T03:02:08;15.50;99.90
11922;DHT22;6021;51.182;3.160;2023-07-13T03:04:37;15.50;99.90
11922;DHT22;6021;51.182;3.160;2023-07-13T03:07:06;15.70;99.90
11922;DHT22;6021;51.182;3.160;2023-07-13T03:09:35;15.60;99.90
11922;DHT22;6021;51.182;3.160;2023-07-13T03:12:04;15.50;99.90
11922;DHT22;6021;51.182;3.160;2023-07-13T03:14:33;15.40;99.90
11922;DHT22;6021;51.182;3.160;2023-07-13T03:17:01;15.30;99.90
11922;DHT22;6021;51.182;3.160;2023-07-13T03:19:29;15.20;99.90
11922;DHT22;6021;51.182;3.160;2023-07-13T03:21:58;15.30;99.90
11922;DHT22;6021;51.182;3.160;2023-07-13T03:24:26;15.30;99.90
11922;DHT22;6021;51.182;3.160;2023-07-13T03:26:54;15.30;99.90
11922;DHT22;6021;51.182;3.160;2023-07-13T03:29:23;15.30;99.90
11922;DHT22;6021;51.182;3.160;2023-07-13T03:31:51;15.30;99.90
11922;DHT22;6021;51.182;3.160;2023-07-13T03:34:19;15.30;99.90
11922;DHT22;6021;51.182;3.160;2023-07-13T03:36:48;15.70;99.90
11922;DHT22;6021;51.182;3.160;2023-07-13T03:39:16;15.40;99.90
11922;DHT22;6021;51.182;3.160;2023-07-13T03:41:44;15.30;99.90
11922;DHT22;6021;51.182;3.160;2023-07-13T03:44:13;15.40;99.90
11922;DHT22;6021;51.182;3.160;2023-07-13T03:46:41;15.50;99.90
11922;DHT22;6021;51.182;3.160;2023-07-13T03:49:10;15.50;99.90
11922;DHT22;6021;51.182;3.160;2023-07-13T03:51:38;15.60;99.90
11922;DHT22;6021;51.182;3.160;2023-07-13T03:54:07;15.50;99.90
11922;DHT22;6021;51.182;3.160;2023-07-13T03:56:35;15.60;99.90
11922;DHT22;6021;51.182;3.160;2023-07-13T03:59:04;15.60;99.90
11922;DHT22;6021;51.182;3.160;2023-07-13T04:01:32;15.60;99.90
11922;DHT22;6021;51.182;3.160;2023-07-13T04:04:01;15.60;99.90
11922;DHT22;6021;51.182;3.160;2023-07-13T04:06:30;15.50;99.90
11922;DHT22;6021;51.182;3.160;2023-07-13T04:09:01;15.40;99.90
11922;DHT22;6021;51.182;3.160;2023-07-13T04:11:32;15.60;99.90
11922;DHT22;6021;51.182;3.160;2023-07-13T04:14:00;15.50;99.90
11922;DHT22;6021;51.182;3.160;2023-07-13T04:16:29;15.40;99.90
11922;DHT22;6021;51.182;3.160;2023-07-13T04:18:57;15.50;99.90
11922;DHT22;6021;51.182;3.160;2023-07-13T04:21:30;15.50;99.90
11922;DHT22;6021;51.182;3.160;2023-07-13T04:23:58;15.70;99.90
11922;DHT22;6021;51.182;3.160;2023-07-13T04:26:27;15.60;99.90
11922;DHT22;6021;51.182;3.160;2023-07-13T04:28:57;15.60;99.90
11922;DHT22;6021;51.182;3.160;2023-07-13T04:31:25;15.50;99.90
11922;DHT22;6021;51.182;3.160;2023-07-13T04:33:54;15.70;99.90
11922;DHT22;6021;51.182;3.160;2023-07-13T04:36:22;15.50;99.90
11922;DHT22;6021;51.182;3.160;2023-07-13T04:38:53;15.50;99.90
11922;DHT22;6021;51.182;3.160;2023-07-13T04:41:21;15.60;99.90
11922;DHT22;6021;51.182;3.160;2023-07-13T04:43:50;15.60;99.90
11922;DHT22;6021;51.182;3.160;2023-07-13T04:46:18;15.50;99.90
11922;DHT22;6021;51.182;3.160;2023-07-13T04:48:48;15.60;99.90
11922;DHT22;6021;51.182;3.160;2023-07-13T04:51:18;15.70;99.90
11922;DHT22;6021;51.182;3.160;2023-07-13T04:53:46;15.60;99.90
11922;DHT22;6021;51.182;3.160;2023-07-13T04:56:15;15.60;99.90
11922;DHT22;6021;51.182;3.160;2023-07-13T04:58:43;15.70;99.90
11922;DHT22;6021;51.182;3.160;2023-07-13T05:01:11;15.70;99.90
11922;DHT22;6021;51.182;3.160;2023-07-13T05:03:40;15.70;99.90
11922;DHT22;6021;51.182;3.160;2023-07-13T05:06:09;15.60;99.90
11922;DHT22;6021;51.182;3.160;2023-07-13T05:08:38;15.80;99.90
11922;DHT22;6021;51.182;3.160;2023-07-13T05:11:06;15.80;99.90
11922;DHT22;6021;51.182;3.160;2023-07-13T05:13:35;15.90;99.90
11922;DHT22;6021;51.182;3.160;2023-07-13T05:16:05;16.20;99.90
11922;DHT22;6021;51.182;3.160;2023-07-13T05:18:35;16.10;99.90
11922;DHT22;6021;51.182;3.160;2023-07-13T05:21:06;16.00;99.90
11922;DHT22;6021;51.182;3.160;2023-07-13T05:23:36;16.10;99.90
11922;DHT22;6021;51.182;3.160;2023-07-13T05:26:05;16.10;99.90
11922;DHT22;6021;51.182;3.160;2023-07-13T05:28:33;16.10;99.90
11922;DHT22;6021;51.182;3.160;2023-07-13T05:31:02;16.20;99.90
11922;DHT22;6021;51.182;3.160;2023-07-13T05:33:30;16.20;99.90
11922;DHT22;6021;51.182;3.160;2023-07-13T05:35:58;16.20;99.90
11922;DHT22;6021;51.182;3.160;2023-07-13T05:38:28;16.30;99.90
11922;DHT22;6021;51.182;3.160;2023-07-13T05:40:57;16.40;99.90
11922;DHT22;6021;51.182;3.160;2023-07-13T05:43:26;16.30;99.90
11922;DHT22;6021;51.182;3.160;2023-07-13T05:45:55;16.40;99.90
11922;DHT22;6021;51.182;3.160;2023-07-13T05:48:24;16.40;99.90
11922;DHT22;6021;51.182;3.160;2023-07-13T05:50:52;16.50;99.90
11922;DHT22;6021;51.182;3.160;2023-07-13T05:53:20;16.50;99.90
11922;DHT22;6021;51.182;3.160;2023-07-13T05:55:49;16.60;99.90
11922;DHT22;6021;51.182;3.160;2023-07-13T05:58:18;16.70;99.90
11922;DHT22;6021;51.182;3.160;2023-07-13T06:00:47;16.80;99.90
11922;DHT22;6021;51.182;3.160;2023-07-13T06:03:16;16.80;99.90
11922;DHT22;6021;51.182;3.160;2023-07-13T06:05:44;16.80;99.90
11922;DHT22;6021;51.182;3.160;2023-07-13T06:08:13;16.80;99.90
11922;DHT22;6021;51.182;3.160;2023-07-13T06:10:41;16.80;99.90
11922;DHT22;6021;51.182;3.160;2023-07-13T06:13:10;16.90;99.90
11922;DHT22;6021;51.182;3.160;2023-07-13T06:15:38;16.90;99.90
11922;DHT22;6021;51.182;3.160;2023-07-13T06:18:07;16.90;99.90
11922;DHT22;6021;51.182;3.160;2023-07-13T06:20:35;17.00;99.90
11922;DHT22;6021;51.182;3.160;2023-07-13T06:23:04;17.00;99.90
11922;DHT22;6021;51.182;3.160;2023-07-13T06:25:32;17.10;99.90
11922;DHT22;6021;51.182;3.160;2023-07-13T06:28:01;17.10;99.90
11922;DHT22;6021;51.182;3.160;2023-07-13T06:30:29;17.00;99.90
11922;DHT22;6021;51.182;3.160;2023-07-13T06:32:59;17.20;99.90
11922;DHT22;6021;51.182;3.160;2023-07-13T06:35:27;17.10;99.90
11922;DHT22;6021;51.182;3.160;2023-07-13T06:37:55;17.10;99.90
11922;DHT22;6021;51.182;3.160;2023-07-13T06:40:24;17.10;99.90
11922;DHT22;6021;51.182;3.160;2023-07-13T06:42:52;17.10;99.90
11922;DHT22;6021;51.182;3.160;2023-07-13T06:45:21;17.30;99.90
11922;DHT22;6021;51.182;3.160;2023-07-13T06:47:49;17.20;99.90
11922;DHT22;6021;51.182;3.160;2023-07-13T06:50:18;17.30;99.90
11922;DHT22;6021;51.182;3.160;2023-07-13T06:52:46;17.50;99.90
11922;DHT22;6021;51.182;3.160;2023-07-13T06:55:14;17.40;99.90
11922;DHT22;6021;51.182;3.160;2023-07-13T06:57:43;17.50;99.90
11922;DHT22;6021;51.182;3.160;2023-07-13T07:00:12;17.50;99.90
11922;DHT22;6021;51.182;3.160;2023-07-13T07:02:40;17.50;99.90
11922;DHT22;6021;51.182;3.160;2023-07-13T07:05:09;17.60;99.90
11922;DHT22;6021;51.182;3.160;2023-07-13T07:07:37;17.70;99.90
11922;DHT22;6021;51.182;3.160;2023-07-13T07:10:06;17.80;99.90
11922;DHT22;6021;51.182;3.160;2023-07-13T07:12:34;17.90;99.90
11922;DHT22;6021;51.182;3.160;2023-07-13T07:15:03;17.90;99.90
11922;DHT22;6021;51.182;3.160;2023-07-13T07:17:31;17.90;99.90
11922;DHT22;6021;51.182;3.160;2023-07-13T07:20:00;17.90;99.90
11922;DHT22;6021;51.182;3.160;2023-07-13T07:22:29;18.00;99.90
11922;DHT22;6021;51.182;3.160;2023-07-13T07:24:57;17.90;99.90
11922;DHT22;6021;51.182;3.160;2023-07-13T07:27:26;17.90;99.90
11922;DHT22;6021;51.182;3.160;2023-07-13T07:29:54;18.00;91.60
11922;DHT22;6021;51.182;3.160;2023-07-13T07:32:24;18.00;94.10
11922;DHT22;6021;51.182;3.160;2023-07-13T07:34:54;17.90;96.70
11922;DHT22;6021;51.182;3.160;2023-07-13T07:37:23;18.10;98.60
11922;DHT22;6021;51.182;3.160;2023-07-13T07:39:51;18.10;85.40
11922;DHT22;6021;51.182;3.160;2023-07-13T07:42:20;18.10;90.50
11922;DHT22;6021;51.182;3.160;2023-07-13T07:44:48;18.20;88.50
11922;DHT22;6021;51.182;3.160;2023-07-13T07:47:17;18.30;75.10
11922;DHT22;6021;51.182;3.160;2023-07-13T07:49:45;18.20;56.30
11922;DHT22;6021;51.182;3.160;2023-07-13T07:52:13;18.30;64.20
11922;DHT22;6021;51.182;3.160;2023-07-13T07:54:42;18.30;68.00
11922;DHT22;6021;51.182;3.160;2023-07-13T07:57:10;18.10;80.80
11922;DHT22;6021;51.182;3.160;2023-07-13T07:59:38;18.10;74.30
11922;DHT22;6021;51.182;3.160;2023-07-13T08:02:09;18.20;78.50
11922;DHT22;6021;51.182;3.160;2023-07-13T08:04:39;18.00;67.40
11922;DHT22;6021;51.182;3.160;2023-07-13T08:07:08;18.00;79.40
11922;DHT22;6021;51.182;3.160;2023-07-13T08:09:37;18.10;71.70
11922;DHT22;6021;51.182;3.160;2023-07-13T08:12:05;18.20;64.80
11922;DHT22;6021;51.182;3.160;2023-07-13T08:14:34;18.20;49.90
11922;DHT22;6021;51.182;3.160;2023-07-13T08:17:02;18.30;40.30
11922;DHT22;6021;51.182;3.160;2023-07-13T08:19:34;18.20;28.50
11922;DHT22;6021;51.182;3.160;2023-07-13T08:22:01;18.30;22.50
11922;DHT22;6021;51.182;3.160;2023-07-13T08:24:29;18.30;26.50
11922;DHT22;6021;51.182;3.160;2023-07-13T08:26:57;18.20;39.60
11922;DHT22;6021;51.182;3.160;2023-07-13T08:29:26;18.40;32.10
11922;DHT22;6021;51.182;3.160;2023-07-13T08:31:54;18.40;29.50
11922;DHT22;6021;51.182;3.160;2023-07-13T08:34:23;18.50;36.00
11922;DHT22;6021;51.182;3.160;2023-07-13T08:36:51;18.60;36.50
11922;DHT22;6021;51.182;3.160;2023-07-13T08:39:19;18.70;20.60
11922;DHT22;6021;51.182;3.160;2023-07-13T08:41:50;18.60;22.10
11922;DHT22;6021;51.182;3.160;2023-07-13T08:44:30;18.60;11.50
11922;DHT22;6021;51.182;3.160;2023-07-13T08:46:52;18.60;12.40
11922;DHT22;6021;51.182;3.160;2023-07-13T08:49:22;18.50;8.00
11922;DHT22;6021;51.182;3.160;2023-07-13T08:52:03;18.50;2.20
11922;DHT22;6021;51.182;3.160;2023-07-13T08:57:17;18.40;12.10
11922;DHT22;6021;51.182;3.160;2023-07-13T08:59:40;18.30;19.30
11922;DHT22;6021;51.182;3.160;2023-07-13T09:07:29;17.90;99.90
11922;DHT22;6021;51.182;3.160;2023-07-13T09:10:10;17.80;99.90
11922;DHT22;6021;51.182;3.160;2023-07-13T09:15:43;17.60;99.90
11922;DHT22;6021;51.182;3.160;2023-07-13T09:18:14;17.50;99.90
11922;DHT22;6021;51.182;3.160;2023-07-13T09:20:56;17.50;99.90
11922;DHT22;6021;51.182;3.160;2023-07-13T09:23:22;17.70;99.90
11922;DHT22;6021;51.182;3.160;2023-07-13T09:25:53;17.90;99.90
11922;DHT22;6021;51.182;3.160;2023-07-13T09:28:28;17.80;99.90
11922;DHT22;6021;51.182;3.160;2023-07-13T09:31:03;17.60;99.90
11922;DHT22;6021;51.182;3.160;2023-07-13T09:33:31;17.50;99.90
11922;DHT22;6021;51.182;3.160;2023-07-13T09:36:00;17.50;99.90
11922;DHT22;6021;51.182;3.160;2023-07-13T09:38:30;17.50;99.90
11922;DHT22;6021;51.182;3.160;2023-07-13T09:44:06;17.50;99.90
11922;DHT22;6021;51.182;3.160;2023-07-13T09:46:31;17.70;99.90
11922;DHT22;6021;51.182;3.160;2023-07-13T09:48:59;17.80;99.90
11922;DHT22;6021;51.182;3.160;2023-07-13T09:51:29;17.80;99.90
11922;DHT22;6021;51.182;3.160;2023-07-13T09:54:01;17.80;99.90
11922;DHT22;6021;51.182;3.160;2023-07-13T09:56:30;17.60;99.90
11922;DHT22;6021;51.182;3.160;2023-07-13T09:58:59;17.50;99.90
11922;DHT22;6021;51.182;3.160;2023-07-13T10:01:36;17.20;99.90
11922;DHT22;6021;51.182;3.160;2023-07-13T10:04:53;17.00;99.90
11922;DHT22;6021;51.182;3.160;2023-07-13T10:06:36;17.10;99.90
11922;DHT22;6021;51.182;3.160;2023-07-13T10:09:06;16.60;99.90
11922;DHT22;6021;51.182;3.160;2023-07-13T10:11:36;16.60;99.90
11922;DHT22;6021;51.182;3.160;2023-07-13T10:14:20;16.60;99.90
11922;DHT22;6021;51.182;3.160;2023-07-13T10:16:58;16.60;99.90
11922;DHT22;6021;51.182;3.160;2023-07-13T10:19:34;16.70;99.90
11922;DHT22;6021;51.182;3.160;2023-07-13T10:24:51;16.60;99.90
11922;DHT22;6021;51.182;3.160;2023-07-13T10:27:34;16.70;99.90
11922;DHT22;6021;51.182;3.160;2023-07-13T10:32:44;16.80;99.90
11922;DHT22;6021;51.182;3.160;2023-07-13T10:35:15;16.80;99.90
11922;DHT22;6021;51.182;3.160;2023-07-13T10:37:55;16.80;99.90
11922;DHT22;6021;51.182;3.160;2023-07-13T10:40:40;16.80;99.90
11922;DHT22;6021;51.182;3.160;2023-07-13T10:45:46;16.90;99.90
11922;DHT22;6021;51.182;3.160;2023-07-13T10:48:19;17.00;99.90
11922;DHT22;6021;51.182;3.160;2023-07-13T10:50:52;17.20;99.90
11922;DHT22;6021;51.182;3.160;2023-07-13T10:53:27;17.30;99.90
11922;DHT22;6021;51.182;3.160;2023-07-13T10:55:54;17.20;99.90
11922;DHT22;6021;51.182;3.160;2023-07-13T11:03:29;17.30;99.90
11922;DHT22;6021;51.182;3.160;2023-07-13T11:06:13;17.40;99.90
11922;DHT22;6021;51.182;3.160;2023-07-13T11:14:13;17.20;99.90
11922;DHT22;6021;51.182;3.160;2023-07-13T11:16:43;17.00;99.90
11922;DHT22;6021;51.182;3.160;2023-07-13T11:27:35;17.10;99.90
11922;DHT22;6021;51.182;3.160;2023-07-13T11:35:37;17.50;99.90
11922;DHT22;6021;51.182;3.160;2023-07-13T11:38:21;17.60;99.90
11922;DHT22;6021;51.182;3.160;2023-07-13T11:40:47;17.70;99.90
11922;DHT22;6021;51.182;3.160;2023-07-13T11:43:16;17.60;99.90
11922;DHT22;6021;51.182;3.160;2023-07-13T11:45:45;17.70;99.90
11922;DHT22;6021;51.182;3.160;2023-07-13T11:48:26;17.70;99.90
11922;DHT22;6021;51.182;3.160;2023-07-13T11:51:03;17.70;99.90
11922;DHT22;6021;51.182;3.160;2023-07-13T11:53:40;17.80;99.90
11922;DHT22;6021;51.182;3.160;2023-07-13T11:56:09;17.80;99.90
11922;DHT22;6021;51.182;3.160;2023-07-13T11:58:37;17.90;99.90
11922;DHT22;6021;51.182;3.160;2023-07-13T12:01:06;17.80;99.90
11922;DHT22;6021;51.182;3.160;2023-07-13T12:03:35;17.80;99.90
11922;DHT22;6021;51.182;3.160;2023-07-13T12:06:05;17.70;99.90
11922;DHT22;6021;51.182;3.160;2023-07-13T12:08:40;17.60;99.90
11922;DHT22;6021;51.182;3.160;2023-07-13T12:11:18;17.70;99.90
11922;DHT22;6021;51.182;3.160;2023-07-13T12:13:47;17.60;99.90
11922;DHT22;6021;51.182;3.160;2023-07-13T12:16:39;17.50;99.90
11922;DHT22;6021;51.182;3.160;2023-07-13T12:18:48;17.70;99.90
11922;DHT22;6021;51.182;3.160;2023-07-13T12:21:18;17.60;99.90
11922;DHT22;6021;51.182;3.160;2023-07-13T12:23:49;17.80;99.90
11922;DHT22;6021;51.182;3.160;2023-07-13T12:26:18;17.90;99.90
11922;DHT22;6021;51.182;3.160;2023-07-13T12:28:51;18.00;99.90
11922;DHT22;6021;51.182;3.160;2023-07-13T12:31:35;17.90;99.90
11922;DHT22;6021;51.182;3.160;2023-07-13T12:34:08;17.90;99.90
11922;DHT22;6021;51.182;3.160;2023-07-13T12:36:47;18.00;99.90
11922;DHT22;6021;51.182;3.160;2023-07-13T12:39:20;17.90;99.90
11922;DHT22;6021;51.182;3.160;2023-07-13T12:41:49;18.00;99.90
11922;DHT22;6021;51.182;3.160;2023-07-13T12:44:29;18.10;99.90
11922;DHT22;6021;51.182;3.160;2023-07-13T12:47:06;18.00;99.90
11922;DHT22;6021;51.182;3.160;2023-07-13T12:49:43;17.90;99.90
11922;DHT22;6021;51.182;3.160;2023-07-13T12:52:20;18.10;99.90
11922;DHT22;6021;51.182;3.160;2023-07-13T12:54:55;18.00;99.90
11922;DHT22;6021;51.182;3.160;2023-07-13T12:57:25;18.00;99.90
11922;DHT22;6021;51.182;3.160;2023-07-13T12:59:54;18.10;99.90
11922;DHT22;6021;51.182;3.160;2023-07-13T13:02:32;18.00;99.90
11922;DHT22;6021;51.182;3.160;2023-07-13T13:05:02;18.10;99.90
11922;DHT22;6021;51.182;3.160;2023-07-13T13:07:32;18.10;99.90
11922;DHT22;6021;51.182;3.160;2023-07-13T13:10:04;18.10;99.90
11922;DHT22;6021;51.182;3.160;2023-07-13T13:12:33;18.30;99.90
11922;DHT22;6021;51.182;3.160;2023-07-13T13:15:01;18.30;99.90
11922;DHT22;6021;51.182;3.160;2023-07-13T13:17:30;18.30;99.90
11922;DHT22;6021;51.182;3.160;2023-07-13T13:20:01;18.30;99.90
11922;DHT22;6021;51.182;3.160;2023-07-13T13:22:29;18.40;99.90
11922;DHT22;6021;51.182;3.160;2023-07-13T13:24:59;18.50;99.90
11922;DHT22;6021;51.182;3.160;2023-07-13T13:27:27;18.20;99.90
11922;DHT22;6021;51.182;3.160;2023-07-13T13:29:57;18.10;99.90
11922;DHT22;6021;51.182;3.160;2023-07-13T13:32:26;18.20;99.90
11922;DHT22;6021;51.182;3.160;2023-07-13T13:34:54;18.40;99.90
11922;DHT22;6021;51.182;3.160;2023-07-13T13:37:23;18.40;99.90
11922;DHT22;6021;51.182;3.160;2023-07-13T13:39:53;18.50;99.90
11922;DHT22;6021;51.182;3.160;2023-07-13T13:42:22;18.60;99.90
11922;DHT22;6021;51.182;3.160;2023-07-13T13:44:52;18.60;99.90
11922;DHT22;6021;51.182;3.160;2023-07-13T13:47:31;18.60;99.90
11922;DHT22;6021;51.182;3.160;2023-07-13T13:50:23;18.60;99.90
11922;DHT22;6021;51.182;3.160;2023-07-13T13:52:31;18.60;86.30
11922;DHT22;6021;51.182;3.160;2023-07-13T13:55:00;18.70;83.30
11922;DHT22;6021;51.182;3.160;2023-07-13T13:57:28;18.80;29.50
11922;DHT22;6021;51.182;3.160;2023-07-13T13:59:58;18.70;22.60
11922;DHT22;6021;51.182;3.160;2023-07-13T14:02:28;18.70;59.20
11922;DHT22;6021;51.182;3.160;2023-07-13T14:05:01;18.80;92.90
11922;DHT22;6021;51.182;3.160;2023-07-13T14:07:29;18.80;82.40
11922;DHT22;6021;51.182;3.160;2023-07-13T14:09:59;18.80;37.30
11922;DHT22;6021;51.182;3.160;2023-07-13T14:12:28;18.80;49.70
11922;DHT22;6021;51.182;3.160;2023-07-13T14:14:57;18.90;6.50
11922;DHT22;6021;51.182;3.160;2023-07-13T14:17:27;18.90;10.70
11922;DHT22;6021;51.182;3.160;2023-07-13T14:19:56;19.10;1.00
11922;DHT22;6021;51.182;3.160;2023-07-13T14:22:26;19.00;1.00
11922;DHT22;6021;51.182;3.160;2023-07-13T14:24:55;18.80;6.70
11922;DHT22;6021;51.182;3.160;2023-07-13T14:27:25;18.70;19.70
11922;DHT22;6021;51.182;3.160;2023-07-13T14:29:57;18.80;35.70
11922;DHT22;6021;51.182;3.160;2023-07-13T14:32:24;18.90;17.60
11922;DHT22;6021;51.182;3.160;2023-07-13T14:34:53;18.80;41.40
11922;DHT22;6021;51.182;3.160;2023-07-13T14:37:22;19.00;80.60
11922;DHT22;6021;51.182;3.160;2023-07-13T14:39:51;19.00;57.50
11922;DHT22;6021;51.182;3.160;2023-07-13T14:42:20;19.00;81.80
11922;DHT22;6021;51.182;3.160;2023-07-13T14:44:48;19.00;71.20
11922;DHT22;6021;51.182;3.160;2023-07-13T14:47:18;19.10;46.90
11922;DHT22;6021;51.182;3.160;2023-07-13T14:49:46;19.10;70.10
11922;DHT22;6021;51.182;3.160;2023-07-13T14:52:20;19.10;53.10
11922;DHT22;6021;51.182;3.160;2023-07-13T14:54:49;19.10;34.80
11922;DHT22;6021;51.182;3.160;2023-07-13T14:57:19;19.10;73.20
11922;DHT22;6021;51.182;3.160;2023-07-13T14:59:48;19.40;81.40
11922;DHT22;6021;51.182;3.160;2023-07-13T15:02:27;19.40;27.60
11922;DHT22;6021;51.182;3.160;2023-07-13T15:04:57;19.30;18.10
11922;DHT22;6021;51.182;3.160;2023-07-13T15:07:26;19.30;1.00
11922;DHT22;6021;51.182;3.160;2023-07-13T15:09:54;19.30;1.00
11922;DHT22;6021;51.182;3.160;2023-07-13T15:12:23;19.50;1.00
11922;DHT22;6021;51.182;3.160;2023-07-13T15:14:51;19.40;1.00
11922;DHT22;6021;51.182;3.160;2023-07-13T15:17:31;19.30;1.00
11922;DHT22;6021;51.182;3.160;2023-07-13T15:19:57;19.40;1.00
11922;DHT22;6021;51.182;3.160;2023-07-13T15:22:26;19.20;1.00
11922;DHT22;6021;51.182;3.160;2023-07-13T15:24:55;19.30;1.00
11922;DHT22;6021;51.182;3.160;2023-07-13T15:27:23;19.30;1.00
11922;DHT22;6021;51.182;3.160;2023-07-13T15:29:52;19.30;1.00
11922;DHT22;6021;51.182;3.160;2023-07-13T15:32:20;19.40;1.00
11922;DHT22;6021;51.182;3.160;2023-07-13T15:34:49;19.50;1.00
11922;DHT22;6021;51.182;3.160;2023-07-13T15:37:17;19.70;1.00
11922;DHT22;6021;51.182;3.160;2023-07-13T15:39:47;19.70;1.00
11922;DHT22;6021;51.182;3.160;2023-07-13T15:42:18;19.80;1.00
11922;DHT22;6021;51.182;3.160;2023-07-13T15:44:47;19.80;1.00
11922;DHT22;6021;51.182;3.160;2023-07-13T15:47:16;19.80;1.00
11922;DHT22;6021;51.182;3.160;2023-07-13T15:49:45;19.70;1.00
11922;DHT22;6021;51.182;3.160;2023-07-13T15:52:18;19.80;1.00
11922;DHT22;6021;51.182;3.160;2023-07-13T15:54:47;19.80;1.00
11922;DHT22;6021;51.182;3.160;2023-07-13T15:57:16;19.80;1.00
11922;DHT22;6021;51.182;3.160;2023-07-13T15:59:45;19.80;1.00
11922;DHT22;6021;51.182;3.160;2023-07-13T16:02:17;19.80;1.00
11922;DHT22;6021;51.182;3.160;2023-07-13T16:04:45;19.80;1.00
11922;DHT22;6021;51.182;3.160;2023-07-13T16:07:15;19.80;1.00
11922;DHT22;6021;51.182;3.160;2023-07-13T16:09:45;19.70;1.00
11922;DHT22;6021;51.182;3.160;2023-07-13T16:12:15;19.80;1.00
11922;DHT22;6021;51.182;3.160;2023-07-13T16:14:44;19.90;1.00
11922;DHT22;6021;51.182;3.160;2023-07-13T16:17:13;19.90;1.00
11922;DHT22;6021;51.182;3.160;2023-07-13T16:19:42;19.80;1.00
11922;DHT22;6021;51.182;3.160;2023-07-13T16:22:15;19.80;1.00
11922;DHT22;6021;51.182;3.160;2023-07-13T16:24:45;19.90;1.00
11922;DHT22;6021;51.182;3.160;2023-07-13T16:27:14;20.00;1.00
11922;DHT22;6021;51.182;3.160;2023-07-13T16:29:42;20.10;1.00
11922;DHT22;6021;51.182;3.160;2023-07-13T16:32:14;20.10;1.00
11922;DHT22;6021;51.182;3.160;2023-07-13T16:34:43;20.20;1.00
11922;DHT22;6021;51.182;3.160;2023-07-13T16:37:17;20.20;1.00
11922;DHT22;6021;51.182;3.160;2023-07-13T16:39:51;20.20;1.00
11922;DHT22;6021;51.182;3.160;2023-07-13T16:42:19;20.30;1.00
11922;DHT22;6021;51.182;3.160;2023-07-13T16:44:48;20.30;1.00
11922;DHT22;6021;51.182;3.160;2023-07-13T16:47:18;20.20;1.00
11922;DHT22;6021;51.182;3.160;2023-07-13T16:49:48;20.30;1.00
11922;DHT22;6021;51.182;3.160;2023-07-13T16:52:18;20.20;1.00
11922;DHT22;6021;51.182;3.160;2023-07-13T16:54:56;20.10;1.00